F/V Roger Christian3 — FUFL — position and weather

sailwx.info

Track history (hours):
 
Tides and Currents Weather Stations Pressure Air Temp Water Temp Dewpoint Dewpoint Depression Visibility Wind Speed Wind Dir Waves Ship Positions

F/V Roger Christian3

Last reported at 2017-Sep-21 16:12 UTC. Time now 2017-Sep-24 12:27 UTC.
Position N 43°24' E 003°42'.

Length 24 m; draft 4 m.

Type: Fishing. MMSI: 228173800.

Date/timePositionNaut miles runAvg speedWind from/ knotsBaromVisibWave heightAir tempDewpointWater temp
2017-Sep-21 16:12N 43°24' E 003°42'0 0.0
2017-Sep-21 16:00N 43°24' E 003°42'0 0.3
2017-Sep-21 15:30N 43°24' E 003°42'2 4.5
2017-Sep-21 15:00N 43°24' E 003°45'611.7
2017-Sep-21 14:30N 43°20' E 003°51'611.8
2017-Sep-21 14:00N 43°16' E 003°57'4 7.4
2017-Sep-21 13:31N 43°13' E 004°01'2 3.9
2017-Sep-21 13:00N 43°12' E 004°03'2 4.3
2017-Sep-21 12:30N 43°11' E 004°05'2 4.3
2017-Sep-21 12:00N 43°09' E 004°07'2 4.4
2017-Sep-21 11:31N 43°07' E 004°09'3 5.2
2017-Sep-21 11:00N 43°05' E 004°11'1 2.6
2017-Sep-21 10:30N 43°04' E 004°13'3 4.3
2017-Sep-21 09:49N 43°03' E 004°16'2 4.3
2017-Sep-21 09:24N 43°02' E 004°18'2 4.3
2017-Sep-21 08:58N 43°01' E 004°20'2 4.3
2017-Sep-21 08:30N 42°59' E 004°22'2 4.2
2017-Sep-21 08:00N 42°58' E 004°24'2 4.5
2017-Sep-21 07:30N 42°56' E 004°26'1 1.4
2017-Sep-21 06:41N 42°57' E 004°28'1 4.3
2017-Sep-21 06:30N 42°57' E 004°27'2 4.4
2017-Sep-21 06:00N 42°59' E 004°26'2 4.3
2017-Sep-21 05:30N 43°00' E 004°24'2 4.5
2017-Sep-21 05:00N 43°01' E 004°21'  
2017-Sep-18 16:17N 43°24' E 003°42'710.5
2017-Sep-18 15:38N 43°20' E 003°49'111.6
2017-Sep-18 15:30N 43°19' E 003°51'611.8
2017-Sep-18 15:00N 43°15' E 003°57'23 6.3
2017-Sep-18 11:24N 43°02' E 004°22'2 4.8
2017-Sep-18 11:00N 43°01' E 004°24'1 2.9
2017-Sep-18 10:29N 43°01' E 004°26'2 4.2
2017-Sep-18 10:01N 43°02' E 004°29'2 4.5
2017-Sep-18 09:30N 43°01' E 004°32'2 4.5
2017-Sep-18 09:00N 43°00' E 004°34'2 4.4
2017-Sep-18 08:30N 42°59' E 004°37'2 4.3
2017-Sep-18 08:01N 42°58' E 004°40'2 4.5
2017-Sep-18 07:30N 42°57' E 004°42'1 1.9
2017-Sep-18 07:01N 42°57' E 004°41'3 4.3
2017-Sep-18 06:17N 42°58' E 004°37'1 4.3
2017-Sep-18 05:57N 42°59' E 004°35'2 4.4
2017-Sep-18 05:30N 43°00' E 004°33'2 4.3
2017-Sep-18 05:00N 43°01' E 004°31'2 4.4
2017-Sep-18 04:30N 43°02' E 004°28'2 4.5
2017-Sep-18 03:58N 43°04' E 004°25'510.5
2017-Sep-18 03:27N 43°07' E 004°19'511.3
2017-Sep-18 03:00N 43°09' E 004°13'911.3
2017-Sep-18 02:14N 43°14' E 004°03'  
2017-Sep-15 16:15N 43°24' E 003°42'0 0.0
2017-Sep-15 16:00N 43°24' E 003°42'0 0.5
2017-Sep-15 15:30N 43°24' E 003°42'511.0
2017-Sep-15 15:00N 43°19' E 003°46'612.1
2017-Sep-15 14:29N 43°14' E 003°51'611.3
2017-Sep-15 13:59N 43°10' E 003°56'6 0.5
2017-Sep-15 02:45N 43°07' E 004°04'311.3
2017-Sep-15 02:28N 43°10' E 004°01'9 0.8
2017-Sep-14 14:52N 43°15' E 003°51'410.6
2017-Sep-14 14:30N 43°12' E 003°54'18 4.1
2017-Sep-14 10:13N 42°56' E 004°06'1 4.4
2017-Sep-14 10:00N 42°56' E 004°07'2 4.3
2017-Sep-14 09:30N 42°56' E 004°10'2 4.2
2017-Sep-14 08:59N 42°55' E 004°13'2 4.3
2017-Sep-14 08:26N 42°53' E 004°15'2 4.3
2017-Sep-14 08:01N 42°51' E 004°16'2 4.2
2017-Sep-14 07:28N 42°49' E 004°17'9 3.3
2017-Sep-14 04:48N 42°57' E 004°13'7 4.3
2017-Sep-14 03:12N 43°03' E 004°08'3 9.8
2017-Sep-14 02:56N 43°05' E 004°05'511.1
2017-Sep-14 02:30N 43°08' E 004°01'611.3
2017-Sep-14 02:00N 43°12' E 003°56'611.4
2017-Sep-14 01:30N 43°17' E 003°50'611.6
2017-Sep-14 01:00N 43°21' E 003°45'4 0.7
2017-Sep-13 19:42N 43°24' E 003°42'0 0.0
2017-Sep-13 19:29N 43°24' E 003°42'0 0.0
2017-Sep-13 18:41N 43°24' E 003°42'0 0.0
2017-Sep-13 18:28N 43°24' E 003°42'0 0.0
2017-Sep-13 17:55N 43°24' E 003°42'14 0.5
2017-Sep-12 11:55N 43°19' E 004°00'2 4.4
2017-Sep-12 11:30N 43°19' E 004°02'1 2.8
2017-Sep-12 11:00N 43°17' E 004°03'1 2.1
2017-Sep-12 10:31N 43°17' E 004°05'2 4.3
2017-Sep-12 10:00N 43°17' E 004°08'2 4.3
2017-Sep-12 09:30N 43°16' E 004°10'2 4.4
2017-Sep-12 09:00N 43°15' E 004°13'2 4.4
2017-Sep-12 08:30N 43°14' E 004°16'2 4.3
2017-Sep-12 08:00N 43°13' E 004°19'2 4.2
2017-Sep-12 07:31N 43°12' E 004°21'1 1.5
2017-Sep-12 07:00N 43°12' E 004°22'2 3.1
2017-Sep-12 06:30N 43°12' E 004°20'2 4.4
2017-Sep-12 06:00N 43°13' E 004°17'2 4.4
2017-Sep-12 05:29N 43°14' E 004°14'2 4.3
2017-Sep-12 05:00N 43°15' E 004°11'2 4.3
2017-Sep-12 04:30N 43°16' E 004°09'3 4.3
2017-Sep-12 03:53N 43°16' E 004°05'2 4.3
2017-Sep-12 03:22N 43°17' E 004°02'  
Track history (hours):
 
Tides and Currents Weather Stations Pressure Air Temp Water Temp Dewpoint Dewpoint Depression Visibility Wind Speed Wind Dir Waves Ship Positions

F/V Roger Christian3

Last reported at 2017-Sep-21 16:12 UTC. Time now 2017-Sep-24 12:27 UTC.
Position N 43°24' E 003°42'.

Length 24 m; draft 4 m.

Type: Fishing. MMSI: 228173800.

Date/timePositionNaut miles runAvg speedWind from/ knotsBaromVisibWave heightAir tempDewpointWater temp
2017-Sep-21 16:12N 43°24' E 003°42'0 0.0
2017-Sep-21 16:00N 43°24' E 003°42'0 0.3
2017-Sep-21 15:30N 43°24' E 003°42'2 4.5
2017-Sep-21 15:00N 43°24' E 003°45'611.7
2017-Sep-21 14:30N 43°20' E 003°51'611.8
2017-Sep-21 14:00N 43°16' E 003°57'4 7.4
2017-Sep-21 13:31N 43°13' E 004°01'2 3.9
2017-Sep-21 13:00N 43°12' E 004°03'2 4.3
2017-Sep-21 12:30N 43°11' E 004°05'2 4.3
2017-Sep-21 12:00N 43°09' E 004°07'2 4.4
2017-Sep-21 11:31N 43°07' E 004°09'3 5.2
2017-Sep-21 11:00N 43°05' E 004°11'1 2.6
2017-Sep-21 10:30N 43°04' E 004°13'3 4.3
2017-Sep-21 09:49N 43°03' E 004°16'2 4.3
2017-Sep-21 09:24N 43°02' E 004°18'2 4.3
2017-Sep-21 08:58N 43°01' E 004°20'2 4.3
2017-Sep-21 08:30N 42°59' E 004°22'2 4.2
2017-Sep-21 08:00N 42°58' E 004°24'2 4.5
2017-Sep-21 07:30N 42°56' E 004°26'1 1.4
2017-Sep-21 06:41N 42°57' E 004°28'1 4.3
2017-Sep-21 06:30N 42°57' E 004°27'2 4.4
2017-Sep-21 06:00N 42°59' E 004°26'2 4.3
2017-Sep-21 05:30N 43°00' E 004°24'2 4.5
2017-Sep-21 05:00N 43°01' E 004°21'  
2017-Sep-18 16:17N 43°24' E 003°42'710.5
2017-Sep-18 15:38N 43°20' E 003°49'111.6
2017-Sep-18 15:30N 43°19' E 003°51'611.8
2017-Sep-18 15:00N 43°15' E 003°57'23 6.3
2017-Sep-18 11:24N 43°02' E 004°22'2 4.8
2017-Sep-18 11:00N 43°01' E 004°24'1 2.9
2017-Sep-18 10:29N 43°01' E 004°26'2 4.2
2017-Sep-18 10:01N 43°02' E 004°29'2 4.5
2017-Sep-18 09:30N 43°01' E 004°32'2 4.5
2017-Sep-18 09:00N 43°00' E 004°34'2 4.4
2017-Sep-18 08:30N 42°59' E 004°37'2 4.3
2017-Sep-18 08:01N 42°58' E 004°40'2 4.5
2017-Sep-18 07:30N 42°57' E 004°42'1 1.9
2017-Sep-18 07:01N 42°57' E 004°41'3 4.3
2017-Sep-18 06:17N 42°58' E 004°37'1 4.3
2017-Sep-18 05:57N 42°59' E 004°35'2 4.4
2017-Sep-18 05:30N 43°00' E 004°33'2 4.3
2017-Sep-18 05:00N 43°01' E 004°31'2 4.4
2017-Sep-18 04:30N 43°02' E 004°28'2 4.5
2017-Sep-18 03:58N 43°04' E 004°25'510.5
2017-Sep-18 03:27N 43°07' E 004°19'511.3
2017-Sep-18 03:00N 43°09' E 004°13'911.3
2017-Sep-18 02:14N 43°14' E 004°03'  
2017-Sep-15 16:15N 43°24' E 003°42'0 0.0
2017-Sep-15 16:00N 43°24' E 003°42'0 0.5
2017-Sep-15 15:30N 43°24' E 003°42'511.0
2017-Sep-15 15:00N 43°19' E 003°46'612.1
2017-Sep-15 14:29N 43°14' E 003°51'611.3
2017-Sep-15 13:59N 43°10' E 003°56'6 0.5
2017-Sep-15 02:45N 43°07' E 004°04'311.3
2017-Sep-15 02:28N 43°10' E 004°01'9 0.8
2017-Sep-14 14:52N 43°15' E 003°51'410.6
2017-Sep-14 14:30N 43°12' E 003°54'18 4.1
2017-Sep-14 10:13N 42°56' E 004°06'1 4.4
2017-Sep-14 10:00N 42°56' E 004°07'2 4.3
2017-Sep-14 09:30N 42°56' E 004°10'2 4.2
2017-Sep-14 08:59N 42°55' E 004°13'2 4.3
2017-Sep-14 08:26N 42°53' E 004°15'2 4.3
2017-Sep-14 08:01N 42°51' E 004°16'2 4.2
2017-Sep-14 07:28N 42°49' E 004°17'9 3.3
2017-Sep-14 04:48N 42°57' E 004°13'7 4.3
2017-Sep-14 03:12N 43°03' E 004°08'3 9.8
2017-Sep-14 02:56N 43°05' E 004°05'511.1
2017-Sep-14 02:30N 43°08' E 004°01'611.3
2017-Sep-14 02:00N 43°12' E 003°56'611.4
2017-Sep-14 01:30N 43°17' E 003°50'611.6
2017-Sep-14 01:00N 43°21' E 003°45'4 0.7
2017-Sep-13 19:42N 43°24' E 003°42'0 0.0
2017-Sep-13 19:29N 43°24' E 003°42'0 0.0
2017-Sep-13 18:41N 43°24' E 003°42'0 0.0
2017-Sep-13 18:28N 43°24' E 003°42'0 0.0
2017-Sep-13 17:55N 43°24' E 003°42'14 0.5
2017-Sep-12 11:55N 43°19' E 004°00'2 4.4
2017-Sep-12 11:30N 43°19' E 004°02'1 2.8
2017-Sep-12 11:00N 43°17' E 004°03'1 2.1
2017-Sep-12 10:31N 43°17' E 004°05'2 4.3
2017-Sep-12 10:00N 43°17' E 004°08'2 4.3
2017-Sep-12 09:30N 43°16' E 004°10'2 4.4
2017-Sep-12 09:00N 43°15' E 004°13'2 4.4
2017-Sep-12 08:30N 43°14' E 004°16'2 4.3
2017-Sep-12 08:00N 43°13' E 004°19'2 4.2
2017-Sep-12 07:31N 43°12' E 004°21'1 1.5
2017-Sep-12 07:00N 43°12' E 004°22'2 3.1
2017-Sep-12 06:30N 43°12' E 004°20'2 4.4
2017-Sep-12 06:00N 43°13' E 004°17'2 4.4
2017-Sep-12 05:29N 43°14' E 004°14'2 4.3
2017-Sep-12 05:00N 43°15' E 004°11'2 4.3
2017-Sep-12 04:30N 43°16' E 004°09'3 4.3
2017-Sep-12 03:53N 43°16' E 004°05'2 4.3
2017-Sep-12 03:22N 43°17' E 004°02'  

Dump ship's entire track history